CJN5 weather

Corman Air Park
Saskatoon, Saskatchewan, Canada

Public forecast

Using degrees Celsius for public forecast. Weather courtesy of forecast.io.

METAR (pilot weather report)

Closest report is Saskatoon John G. Diefenbaker International Airport, 13.4 nm (24.9 km) NW. Retrieved 2019/04/24 02:00 UTC (22 minutes ago):

CYXE 240200Z 28011G17KT 15SM SCT040 SCT110 15/M06 A2970 RMK SC3AC1 SLP069 DENSITY ALT 2400FT

TAF (pilot weather forecast)

Forecast is more than 12 hours old.

Closest forecast is Saskatoon John G. Diefenbaker International Airport, 13.4 nm (24.9 km) NW. Retrieved 2019/04/23 00:42 UTC (1 day ago):

TAF CYXE 232338Z 2400/2424 29018G28KT P6SM SCT120 BKN280 BECMG 2401/2403 28012G22KT FM240400 30015KT P6SM FEW120 FM241500 31015G25KT P6SM FEW060 FM241800 31018KT P6SM SCT080 RMK NXT FCST BY 240600Z